createdAt,value
2019-04-10T00:00:44.434Z,93860.23
2019-04-10T00:03:25.763Z,93860.27
2019-04-10T00:05:44.624Z,93861.73
2019-04-10T00:08:14.134Z,93864.45
2019-04-10T00:10:43.793Z,93868.78
2019-04-10T00:13:12.496Z,93861.42
2019-04-10T00:15:42.271Z,93854.71
2019-04-10T00:18:11.177Z,93858.20
2019-04-10T00:20:40.612Z,93856.92
2019-04-10T00:23:09.366Z,93852.37
2019-04-10T00:25:39.161Z,93856.78
2019-04-10T00:28:08.159Z,93849.94
2019-04-10T00:30:37.574Z,93851.47
2019-04-10T00:33:06.372Z,93854.57
2019-04-10T00:35:35.171Z,93851.14
2019-04-10T00:38:03.790Z,93857.80
2019-04-10T00:40:33.214Z,93847.05
2019-04-10T00:43:02.308Z,93846.44
2019-04-10T00:45:30.871Z,93846.66
2019-04-10T00:47:59.649Z,93843.83
2019-04-10T00:50:28.688Z,93846.62
2019-04-10T00:52:57.493Z,93848.70
2019-04-10T00:55:26.125Z,93847.69
2019-04-10T00:57:54.826Z,93851.91
2019-04-10T01:00:23.953Z,93849.09
2019-04-10T01:02:53.342Z,93850.69
2019-04-10T01:05:22.902Z,93846.10
2019-04-10T01:07:51.901Z,93848.00
2019-04-10T01:10:20.659Z,93850.68
2019-04-10T01:12:49.176Z,93852.36
2019-04-10T01:15:18.361Z,93855.77
2019-04-10T01:17:47.169Z,93846.21
2019-04-10T01:20:15.811Z,93845.95
2019-04-10T01:22:45.504Z,93840.78
2019-04-10T01:25:14.446Z,93843.22
2019-04-10T01:27:43.115Z,93836.30
2019-04-10T01:30:12.049Z,93833.92
2019-04-10T01:32:40.549Z,93824.10
2019-04-10T01:35:09.945Z,93832.91
2019-04-10T01:37:48.719Z,93835.03
2019-04-10T01:40:09.217Z,93837.63
2019-04-10T01:42:38.815Z,93838.41
2019-04-10T01:45:09.027Z,93829.78
2019-04-10T01:47:37.756Z,93827.66
2019-04-10T01:50:06.822Z,93824.14
2019-04-10T01:52:35.483Z,93837.84
2019-04-10T01:55:19.129Z,93836.33
2019-04-10T01:57:34.855Z,93827.67
2019-04-10T02:00:04.767Z,93832.40
2019-04-10T02:02:35.069Z,93828.29
2019-04-10T02:05:12.511Z,93821.98
2019-04-10T02:07:41.014Z,93821.59
2019-04-10T02:10:10.078Z,93823.64
2019-04-10T02:12:39.484Z,93827.69
2019-04-10T02:15:11.870Z,93825.87
2019-04-10T02:17:38.992Z,93824.61
2019-04-10T02:20:09.205Z,93825.16
2019-04-10T02:22:38.479Z,93817.13
2019-04-10T02:25:07.656Z,93824.98
2019-04-10T02:27:36.317Z,93822.27
2019-04-10T02:30:09.729Z,93818.60
2019-04-10T02:32:39.321Z,93817.91
2019-04-10T02:35:13.178Z,93822.23
2019-04-10T02:37:39.633Z,93818.52
2019-04-10T02:40:10.941Z,93814.86
2019-04-10T02:42:41.062Z,93816.59
2019-04-10T02:45:10.425Z,93813.41
2019-04-10T02:47:41.094Z,93814.36
2019-04-10T02:50:11.898Z,93814.72
2019-04-10T02:52:43.018Z,93818.56
2019-04-10T02:55:11.894Z,93817.05
2019-04-10T02:57:41.422Z,93818.67
2019-04-10T03:00:12.733Z,93816.77
2019-04-10T03:02:41.553Z,93816.91
2019-04-10T03:05:10.919Z,93816.30
2019-04-10T03:07:40.334Z,93824.58
2019-04-10T03:10:21.717Z,93827.00
2019-04-10T03:12:41.065Z,93830.42
2019-04-10T03:15:12.366Z,93826.06
2019-04-10T03:17:40.452Z,93823.86
2019-04-10T03:20:10.028Z,93823.44
2019-04-10T03:22:38.886Z,93817.30
2019-04-10T03:25:08.872Z,93818.14
2019-04-10T03:27:38.660Z,93825.09
2019-04-10T03:30:10.156Z,93825.81
2019-04-10T03:32:48.077Z,93825.23
2019-04-10T03:35:14.616Z,93824.41
2019-04-10T03:37:43.229Z,93820.66
2019-04-10T03:40:11.894Z,93822.92
2019-04-10T03:42:41.285Z,93828.47
2019-04-10T03:45:11.500Z,93828.84
2019-04-10T03:47:40.200Z,93842.78
2019-04-10T03:50:09.151Z,93845.05
2019-04-10T03:52:37.882Z,93851.94
2019-04-10T03:55:06.959Z,93851.39
2019-04-10T03:57:36.442Z,93854.35
2019-04-10T04:00:06.828Z,93846.09
2019-04-10T04:02:35.963Z,93856.63
2019-04-10T04:05:06.505Z,93856.16
2019-04-10T04:07:35.292Z,93864.98
2019-04-10T04:10:06.434Z,93872.02
2019-04-10T04:12:35.111Z,93864.16
2019-04-10T04:15:05.264Z,93875.87
2019-04-10T04:17:34.027Z,93873.23
2019-04-10T04:20:02.666Z,93871.07
2019-04-10T04:22:32.615Z,93877.28
2019-04-10T04:25:01.320Z,93882.64
2019-04-10T04:27:29.828Z,93883.58
2019-04-10T04:29:59.552Z,93886.32
2019-04-10T04:32:29.301Z,93883.72
2019-04-10T04:34:58.021Z,93882.61
2019-04-10T04:37:26.577Z,93886.25
2019-04-10T04:39:56.257Z,93886.97
2019-04-10T04:42:24.853Z,93888.70
2019-04-10T04:44:54.205Z,93890.90
2019-04-10T04:47:22.776Z,93887.04
2019-04-10T04:49:52.347Z,93885.81
2019-04-10T04:52:21.074Z,93891.61
2019-04-10T04:54:49.876Z,93891.31
2019-04-10T04:57:18.617Z,93903.75
2019-04-10T04:59:48.264Z,93887.33
2019-04-10T05:02:17.767Z,93899.56
2019-04-10T05:04:46.662Z,93904.17
2019-04-10T05:07:15.353Z,93911.83
2019-04-10T05:09:44.011Z,93914.13
2019-04-10T05:12:13.376Z,93919.74
2019-04-10T05:14:42.232Z,93910.70
2019-04-10T05:17:10.867Z,93922.34
2019-04-10T05:19:40.489Z,93924.54
2019-04-10T05:22:10.176Z,93927.12
2019-04-10T05:24:38.859Z,93929.77
2019-04-10T05:27:07.785Z,93924.65
2019-04-10T05:29:36.744Z,93927.22
2019-04-10T05:32:05.351Z,93930.48
2019-04-10T05:34:34.000Z,93927.64
2019-04-10T05:37:03.134Z,93929.59
2019-04-10T05:39:40.559Z,93923.86
2019-04-10T05:42:02.748Z,93922.34
2019-04-10T05:44:31.870Z,93931.15
2019-04-10T05:47:01.172Z,93934.66
2019-04-10T05:49:30.854Z,93936.61
2019-04-10T05:51:59.950Z,93933.14
2019-04-10T05:54:28.558Z,93932.06
2019-04-10T05:56:57.209Z,93940.16
2019-04-10T05:59:25.964Z,93936.00
2019-04-10T06:01:54.743Z,93933.00
2019-04-10T06:04:23.487Z,93928.09
2019-04-10T06:06:52.689Z,93927.70
2019-04-10T06:09:21.350Z,93930.83
2019-04-10T06:11:50.073Z,93930.30
2019-04-10T06:14:18.794Z,93934.12
2019-04-10T06:16:47.485Z,93939.24
2019-04-10T06:19:16.135Z,93935.35
2019-04-10T06:21:45.956Z,93937.39
2019-04-10T06:24:14.770Z,93938.91
2019-04-10T06:26:43.694Z,93945.92
2019-04-10T06:29:12.868Z,93942.33
2019-04-10T06:31:41.570Z,93954.59
2019-04-10T06:34:11.711Z,93955.59
2019-04-10T06:36:41.689Z,93960.09
2019-04-10T06:39:10.842Z,93962.99
2019-04-10T06:41:39.501Z,93961.84
2019-04-10T06:44:08.019Z,93962.30
2019-04-10T06:46:38.864Z,93967.48
2019-04-10T06:49:07.762Z,93969.07
2019-04-10T06:51:37.602Z,93964.52
2019-04-10T06:54:09.874Z,93963.21
2019-04-10T06:56:37.516Z,93958.77
2019-04-10T06:59:06.665Z,93962.55
2019-04-10T07:01:47.212Z,93962.70
2019-04-10T07:04:07.993Z,93964.61
2019-04-10T07:06:50.008Z,93962.03
2019-04-10T07:09:09.581Z,93969.19
2019-04-10T07:11:38.638Z,93966.71
2019-04-10T07:14:10.224Z,93975.85
2019-04-10T07:16:37.959Z,93973.03
2019-04-10T07:19:08.829Z,93973.52
2019-04-10T07:21:38.351Z,93973.10
2019-04-10T07:24:09.472Z,93977.25
2019-04-10T07:26:42.145Z,93979.77
2019-04-10T07:29:08.963Z,93978.56
2019-04-10T07:31:38.328Z,93979.42
2019-04-10T07:34:08.827Z,93980.84
2019-04-10T07:36:41.696Z,93982.41
2019-04-10T07:39:08.211Z,93991.03
2019-04-10T07:41:37.749Z,93981.88
2019-04-10T07:44:06.576Z,93994.77
2019-04-10T07:46:35.357Z,93988.54
2019-04-10T07:49:04.015Z,93985.38
2019-04-10T07:51:32.644Z,93984.27
2019-04-10T07:54:01.914Z,93984.27
2019-04-10T07:56:31.192Z,93988.77
2019-04-10T07:59:00.560Z,93983.73
2019-04-10T08:01:29.270Z,93990.64
2019-04-10T08:03:57.774Z,93989.73
2019-04-10T08:06:27.700Z,93994.69
2019-04-10T08:08:56.543Z,93986.45
2019-04-10T08:11:26.119Z,93994.16
2019-04-10T08:13:56.032Z,93985.33
2019-04-10T08:16:25.369Z,93980.91
2019-04-10T08:18:54.197Z,93983.31
2019-04-10T08:21:23.935Z,93977.02
2019-04-10T08:23:53.067Z,93971.23
2019-04-10T08:26:22.737Z,93975.39
2019-04-10T08:28:51.715Z,93975.84
2019-04-10T08:31:22.213Z,93981.95
2019-04-10T08:33:51.068Z,93994.86
2019-04-10T08:36:19.756Z,93989.00
2019-04-10T08:38:48.929Z,93989.70
2019-04-10T08:41:17.420Z,93999.07
2019-04-10T08:43:46.105Z,94000.97
2019-04-10T08:46:14.753Z,94005.91
2019-04-10T08:48:43.430Z,94003.73
2019-04-10T08:51:12.217Z,94006.34
2019-04-10T08:53:40.871Z,94003.95
2019-04-10T08:56:10.660Z,94000.66
2019-04-10T08:58:39.567Z,94006.44
2019-04-10T09:01:09.144Z,94004.61
2019-04-10T09:03:37.756Z,94006.44
2019-04-10T09:06:07.202Z,94005.84
2019-04-10T09:08:37.057Z,94015.78
2019-04-10T09:11:07.010Z,94013.97
2019-04-10T09:13:36.832Z,94009.90
2019-04-10T09:16:06.595Z,94005.61
2019-04-10T09:18:35.461Z,94007.75
2019-04-10T09:21:04.936Z,94000.11
2019-04-10T09:23:42.897Z,94000.52
2019-04-10T09:26:03.978Z,94002.48
2019-04-10T09:28:32.812Z,93999.89
2019-04-10T09:31:01.776Z,94004.88
2019-04-10T09:33:32.332Z,93999.14
2019-04-10T09:36:01.191Z,94000.33
2019-04-10T09:38:30.640Z,93993.77
2019-04-10T09:40:59.429Z,93996.73
2019-04-10T09:43:28.312Z,93993.44
2019-04-10T09:45:58.039Z,93993.75
2019-04-10T09:48:26.523Z,93996.21
2019-04-10T09:50:56.078Z,93989.59
2019-04-10T09:53:24.746Z,93990.65
2019-04-10T09:55:54.490Z,93985.13
2019-04-10T09:58:23.990Z,93980.37
2019-04-10T10:00:52.627Z,93989.97
2019-04-10T10:03:21.264Z,93977.94
2019-04-10T10:05:51.018Z,93982.13
2019-04-10T10:08:19.628Z,93987.30
2019-04-10T10:10:49.163Z,93984.96
2019-04-10T10:13:18.312Z,93983.69
2019-04-10T10:15:46.834Z,93979.35
2019-04-10T10:18:15.472Z,93976.20
2019-04-10T10:20:44.335Z,93975.56
2019-04-10T10:23:13.745Z,93974.78
2019-04-10T10:25:42.279Z,93968.25
2019-04-10T10:28:11.806Z,93970.48
2019-04-10T10:30:40.461Z,93971.33
2019-04-10T10:33:09.860Z,93962.66
2019-04-10T10:35:39.050Z,93963.91
2019-04-10T10:38:08.439Z,93958.80
2019-04-10T10:40:37.110Z,93963.81
2019-04-10T10:43:05.713Z,93958.30
2019-04-10T10:45:34.721Z,93954.32
2019-04-10T10:48:03.486Z,93955.98
2019-04-10T10:50:33.165Z,93956.54
2019-04-10T10:53:01.927Z,93957.10
2019-04-10T10:55:31.739Z,93966.84
2019-04-10T10:58:01.682Z,93960.34
2019-04-10T11:00:31.419Z,93977.50
2019-04-10T11:03:00.247Z,93971.97
2019-04-10T11:05:30.800Z,93967.72
2019-04-10T11:07:59.909Z,93965.59
2019-04-10T11:10:30.027Z,93966.80
2019-04-10T11:12:59.993Z,93968.50
2019-04-10T11:15:28.959Z,93972.17
2019-04-10T11:17:57.861Z,93971.55
2019-04-10T11:20:27.963Z,93967.47
2019-04-10T11:22:57.727Z,93957.41
2019-04-10T11:25:26.432Z,93968.05
2019-04-10T11:27:56.537Z,93962.43
2019-04-10T11:30:26.836Z,93954.91
2019-04-10T11:32:55.746Z,93955.94
2019-04-10T11:35:24.426Z,93955.73
2019-04-10T11:37:56.187Z,93956.91
2019-04-10T11:40:23.647Z,93967.66
2019-04-10T11:42:54.234Z,93967.65
2019-04-10T11:45:28.295Z,93965.27
2019-04-10T11:47:54.491Z,93961.44
2019-04-10T11:50:25.417Z,93950.34
2019-04-10T11:52:56.096Z,93953.98
2019-04-10T11:55:27.004Z,93949.13
2019-04-10T11:57:55.395Z,93951.05
2019-04-10T12:00:47.498Z,93952.13
2019-04-10T12:03:10.652Z,93949.67
2019-04-10T12:05:41.292Z,93942.75
2019-04-10T12:13:12.477Z,93945.75
2019-04-10T12:15:42.922Z,93951.20
2019-04-10T12:18:12.018Z,93950.45
2019-04-10T12:20:41.050Z,93952.03
2019-04-10T12:23:10.470Z,93942.48
2019-04-10T12:25:39.127Z,93943.47
2019-04-10T12:28:07.825Z,93933.56
2019-04-10T12:30:37.459Z,93933.67
2019-04-10T12:33:07.484Z,93935.34
2019-04-10T12:35:36.153Z,93934.71
2019-04-10T12:38:08.136Z,93930.12
2019-04-10T12:40:37.591Z,93935.61
2019-04-10T12:43:05.757Z,93929.36
2019-04-10T12:45:34.317Z,93929.63
2019-04-10T12:48:04.085Z,93937.82
2019-04-10T12:50:32.874Z,93935.44
2019-04-10T12:53:01.502Z,93939.73
2019-04-10T12:55:30.465Z,93937.55
2019-04-10T12:58:06.529Z,93929.42
2019-04-10T13:00:29.277Z,93936.75
2019-04-10T13:02:58.690Z,93931.64
2019-04-10T13:05:27.419Z,93936.67
2019-04-10T13:07:56.176Z,93939.05
2019-04-10T13:10:25.294Z,93933.98
2019-04-10T13:12:54.006Z,93925.36
2019-04-10T13:15:23.404Z,93935.31
2019-04-10T13:17:53.107Z,93925.56
2019-04-10T13:20:21.937Z,93924.81
2019-04-10T13:22:50.808Z,93930.12
2019-04-10T13:25:19.831Z,93929.55
2019-04-10T13:27:48.407Z,93924.73
2019-04-10T13:30:17.305Z,93927.41
2019-04-10T13:32:45.980Z,93927.94
2019-04-10T13:35:15.795Z,93931.91
2019-04-10T13:37:45.501Z,93930.25
2019-04-10T13:40:15.211Z,93930.68
2019-04-10T13:42:43.835Z,93934.97
2019-04-10T13:45:14.974Z,93929.50
2019-04-10T13:47:44.912Z,93930.63
2019-04-10T13:50:14.658Z,93933.67
2019-04-10T13:52:44.895Z,93930.53
2019-04-10T13:55:13.582Z,93933.48
2019-04-10T13:57:42.422Z,93935.40
2019-04-10T14:00:13.405Z,93931.04
2019-04-10T14:02:41.950Z,93932.39
2019-04-10T14:05:15.635Z,93932.92
2019-04-10T14:07:44.604Z,93930.73
2019-04-10T14:10:15.537Z,93938.31
2019-04-10T14:12:44.071Z,93932.44
2019-04-10T14:15:13.926Z,93936.64
2019-04-10T14:17:42.523Z,93940.38
2019-04-10T14:20:13.106Z,93935.86
2019-04-10T14:22:46.546Z,93940.27
2019-04-10T14:25:17.721Z,93938.75
2019-04-10T14:27:46.673Z,93943.94
2019-04-10T14:30:23.015Z,93942.14
2019-04-10T14:32:51.699Z,93940.76
2019-04-10T14:35:20.443Z,93939.86
2019-04-10T14:37:49.673Z,93936.45
2019-04-10T14:40:18.576Z,93940.61
2019-04-10T14:42:47.322Z,93939.22
2019-04-10T14:45:15.967Z,93938.88
2019-04-10T14:47:44.565Z,93936.68
2019-04-10T14:50:13.716Z,93932.39
2019-04-10T14:52:43.349Z,93935.63
2019-04-10T14:55:12.457Z,93939.64
2019-04-10T14:57:41.258Z,93936.84
2019-04-10T15:00:17.959Z,93944.16
2019-04-10T15:02:46.568Z,93934.68
2019-04-10T15:05:15.512Z,93939.19
2019-04-10T15:07:44.832Z,93927.83
2019-04-10T15:10:14.593Z,93924.58
2019-04-10T15:12:43.826Z,93923.63
2019-04-10T15:15:12.590Z,93934.11
2019-04-10T15:17:42.192Z,93918.40
2019-04-10T15:20:11.207Z,93923.55
2019-04-10T15:22:40.075Z,93922.21
2019-04-10T15:25:09.044Z,93917.97
2019-04-10T15:27:37.766Z,93915.36
2019-04-10T15:30:08.417Z,93917.02
2019-04-10T15:32:37.792Z,93921.28
2019-04-10T15:35:06.899Z,93927.98
2019-04-10T15:37:35.460Z,93929.21
2019-04-10T15:40:17.977Z,93924.86
2019-04-10T15:42:37.382Z,93933.23
2019-04-10T15:45:07.918Z,93923.42
2019-04-10T15:47:37.443Z,93911.78
2019-04-10T15:50:08.558Z,93919.09
2019-04-10T15:52:37.568Z,93922.04
2019-04-10T15:55:07.785Z,93917.77
2019-04-10T15:57:47.013Z,93923.42
2019-04-10T16:00:10.717Z,93925.64
2019-04-10T16:02:40.519Z,93922.45
2019-04-10T16:05:09.543Z,93929.84
2019-04-10T16:07:38.385Z,93932.66
2019-04-10T16:10:19.025Z,93934.53
2019-04-10T16:12:48.084Z,93937.10
2019-04-10T16:15:17.318Z,93941.84
2019-04-10T16:18:05.942Z,93942.25
2019-04-10T16:20:34.978Z,93939.44
2019-04-10T16:23:12.263Z,93935.70
2019-04-10T16:25:43.402Z,93939.84
2019-04-10T16:28:12.650Z,93936.73
2019-04-10T16:30:41.472Z,93939.42
2019-04-10T16:33:11.179Z,93934.98
2019-04-10T16:35:40.157Z,93938.12
2019-04-10T16:38:09.149Z,93932.58
2019-04-10T16:40:38.264Z,93937.89
2019-04-10T16:43:08.008Z,93933.48
2019-04-10T16:45:36.962Z,93930.99
2019-04-10T16:48:06.430Z,93931.77
2019-04-10T16:50:36.289Z,93932.65
2019-04-10T16:53:05.725Z,93930.45
2019-04-10T16:55:34.627Z,93931.84
2019-04-10T16:58:03.429Z,93933.78
2019-04-10T17:00:32.257Z,93941.72
2019-04-10T17:03:01.910Z,93939.01
2019-04-10T17:05:33.609Z,93941.30
2019-04-10T17:08:01.446Z,93949.41
2019-04-10T17:10:30.320Z,93954.09
2019-04-10T17:12:58.796Z,93959.77
2019-04-10T17:15:28.175Z,93968.83
2019-04-10T17:17:57.028Z,93962.20
2019-04-10T17:20:27.238Z,93960.98
2019-04-10T17:22:56.380Z,93957.86
2019-04-10T17:25:26.248Z,93962.50
2019-04-10T17:27:56.313Z,93964.13
2019-04-10T17:30:25.470Z,93969.13
2019-04-10T17:32:54.388Z,93967.27
2019-04-10T17:35:23.447Z,93975.91
2019-04-10T17:37:51.963Z,93975.28
2019-04-10T17:40:29.767Z,93976.42
2019-04-10T17:42:52.738Z,93977.53
2019-04-10T17:45:22.989Z,93988.41
2019-04-10T17:47:51.760Z,93992.16
2019-04-10T17:50:22.358Z,93993.44
2019-04-10T17:52:51.374Z,93995.80
2019-04-10T17:55:20.127Z,93997.68
2019-04-10T17:57:48.963Z,94003.67
2019-04-10T18:00:27.486Z,94011.58
2019-04-10T18:02:57.167Z,94009.06
2019-04-10T18:05:26.601Z,94016.80
2019-04-10T18:07:55.228Z,94005.44
2019-04-10T18:10:24.698Z,94012.70
2019-04-10T18:12:54.615Z,94022.09
2019-04-10T18:15:24.129Z,94018.97
2019-04-10T18:17:53.425Z,94020.22
2019-04-10T18:20:22.201Z,94033.97
2019-04-10T18:22:51.876Z,94034.35
2019-04-10T18:25:20.566Z,94037.22
2019-04-10T18:27:49.228Z,94043.98
2019-04-10T18:30:19.497Z,94042.23
2019-04-10T18:32:48.180Z,94049.63
2019-04-10T18:35:16.931Z,94050.59
2019-04-10T18:37:47.680Z,94049.11
2019-04-10T18:40:16.355Z,94050.34
2019-04-10T18:42:45.404Z,94052.80
2019-04-10T18:45:14.410Z,94055.59
2019-04-10T18:47:44.066Z,94057.41
2019-04-10T18:50:13.054Z,94050.69
2019-04-10T18:52:41.654Z,94057.13
2019-04-10T18:55:10.406Z,94064.44
2019-04-10T18:57:39.061Z,94065.19
2019-04-10T19:00:26.654Z,94069.82
2019-04-10T19:03:13.137Z,94068.67
2019-04-10T19:05:49.666Z,94068.31
2019-04-10T19:08:19.682Z,94069.72
2019-04-10T19:10:48.471Z,94071.30
2019-04-10T19:13:17.285Z,94071.30
2019-04-10T19:15:46.962Z,94070.23
2019-04-10T19:18:15.809Z,94071.09
2019-04-10T19:20:44.655Z,94073.98
2019-04-10T19:23:13.226Z,94075.27
2019-04-10T19:25:43.379Z,94082.09
2019-04-10T19:28:12.840Z,94077.30
2019-04-10T19:30:43.565Z,94079.25
2019-04-10T19:33:12.237Z,94075.42
2019-04-10T19:35:41.374Z,94076.33
2019-04-10T19:38:11.349Z,94077.56
2019-04-10T19:40:40.374Z,94076.16
2019-04-10T19:43:10.241Z,94069.44
2019-04-10T19:45:39.801Z,94063.55
2019-04-10T19:48:08.952Z,94069.11
2019-04-10T19:50:39.060Z,94071.02
2019-04-10T19:53:07.572Z,94071.56
2019-04-10T19:55:36.346Z,94070.69
2019-04-10T19:58:05.931Z,94068.98
2019-04-10T20:00:36.783Z,94065.26
2019-04-10T20:03:05.745Z,94059.38
2019-04-10T20:05:34.418Z,94059.88
2019-04-10T20:08:03.145Z,94055.67
2019-04-10T20:10:31.729Z,94045.18
2019-04-10T20:13:01.369Z,94035.09
2019-04-10T20:15:30.773Z,94033.31
2019-04-10T20:18:00.109Z,94024.55
2019-04-10T20:20:29.057Z,94023.79
2019-04-10T20:22:58.277Z,94026.86
2019-04-10T20:25:27.227Z,94033.31
2019-04-10T20:27:56.369Z,94038.59
2019-04-10T20:30:27.883Z,94033.17
2019-04-10T20:32:56.593Z,94037.94
2019-04-10T20:35:25.208Z,94033.17
2019-04-10T20:37:55.350Z,94035.66
2019-04-10T20:40:24.121Z,94030.73
2019-04-10T20:42:52.698Z,94033.28
2019-04-10T20:45:23.142Z,94032.39
2019-04-10T20:47:52.031Z,94036.65
2019-04-10T20:50:20.660Z,94038.43
2019-04-10T20:52:49.448Z,94033.88
2019-04-10T20:55:18.214Z,94039.71
2019-04-10T20:57:48.157Z,94040.41
2019-04-10T21:00:22.396Z,94037.84
2019-04-10T21:02:51.059Z,94044.98
2019-04-10T21:05:19.913Z,94046.10
2019-04-10T21:07:48.439Z,94039.31
2019-04-10T21:10:17.177Z,94042.46
2019-04-10T21:12:45.760Z,94031.25
2019-04-10T21:15:14.452Z,94030.14
2019-04-10T21:17:43.047Z,94030.58
2019-04-10T21:20:13.561Z,94034.45
2019-04-10T21:22:45.241Z,94032.76
2019-04-10T21:25:14.906Z,94034.13
2019-04-10T21:27:44.099Z,94034.99
2019-04-10T21:30:31.767Z,94037.44
2019-04-10T21:33:17.099Z,94038.69
2019-04-10T21:35:45.837Z,94037.44
2019-04-10T21:38:15.130Z,94034.89
2019-04-10T21:40:43.715Z,94037.58
2019-04-10T21:43:12.383Z,94035.41
2019-04-10T21:45:41.351Z,94033.94
2019-04-10T21:48:10.530Z,94026.20
2019-04-10T21:50:39.813Z,94032.14
2019-04-10T21:53:08.515Z,94026.56
2019-04-10T21:55:37.495Z,94023.77
2019-04-10T21:58:06.297Z,94034.34
2019-04-10T22:00:39.415Z,94030.26
2019-04-10T22:03:09.062Z,94028.26
2019-04-10T22:05:39.615Z,94023.44
2019-04-10T22:08:12.606Z,94023.73
2019-04-10T22:10:45.476Z,94019.34
2019-04-10T22:13:14.115Z,94021.51
2019-04-10T22:15:44.942Z,94024.24
2019-04-10T22:18:14.780Z,94023.97
2019-04-10T22:20:43.739Z,94026.17
2019-04-10T22:23:12.472Z,94025.42
2019-04-10T22:25:42.358Z,94031.38
2019-04-10T22:28:10.997Z,94029.47
2019-04-10T22:30:39.680Z,94036.12
2019-04-10T22:33:08.574Z,94042.02
2019-04-10T22:35:37.240Z,94040.62
2019-04-10T22:38:06.147Z,94039.06
2019-04-10T22:40:34.892Z,94042.02
2019-04-10T22:43:03.460Z,94038.58
2019-04-10T22:45:32.843Z,94033.25
2019-04-10T22:48:01.480Z,94041.27
2019-04-10T22:50:31.024Z,94046.84
2019-04-10T22:52:59.817Z,94045.48
2019-04-10T22:55:28.562Z,94049.84
2019-04-10T22:57:57.159Z,94047.12
2019-04-10T23:00:32.640Z,94052.01
2019-04-10T23:03:02.900Z,94044.11
2019-04-10T23:05:32.309Z,94042.36
2019-04-10T23:08:01.273Z,94041.72
2019-04-10T23:10:29.898Z,94046.06
2019-04-10T23:13:02.907Z,94041.52
2019-04-10T23:15:28.999Z,94043.79
2019-04-10T23:17:57.506Z,94043.34
2019-04-10T23:20:26.282Z,94041.70
2019-04-10T23:22:54.999Z,94034.45
2019-04-10T23:25:24.699Z,94031.68
2019-04-10T23:27:56.025Z,94037.53
2019-04-10T23:30:24.641Z,94036.98
2019-04-10T23:32:53.607Z,94035.46
2019-04-10T23:35:22.344Z,94038.11
2019-04-10T23:37:51.200Z,94035.93
2019-04-10T23:40:21.032Z,94043.73
2019-04-10T23:43:01.279Z,94036.91
2019-04-10T23:45:19.996Z,94039.12
2019-04-10T23:47:48.815Z,94033.92
2019-04-10T23:50:18.571Z,94039.17
2019-04-10T23:52:47.885Z,94030.89
2019-04-10T23:55:17.810Z,94039.23
2019-04-10T23:57:46.539Z,94035.36
